Time;durP1;ratioP1;P1;durP2;ratioP2;P2;SDS_P1;SDS_P2;PMS_P1;PMS_P2;Temp;Humidity;BMP_temperature;BMP_pressure;BME280_temperature;BME280_humidity;BME280_pressure;Samples;Min_cycle;Max_cycle;Signal;HPM_P1;HPM_P2
2023/08/01 00:00:54;;;;;;;;;;;;;;;29.42;37.77;93571.72;5059830;28;8806;-56
2023/08/01 00:03:22;;;;;;;;;;;;;;;29.46;38.05;93561.75;5036773;28;7183;-55
2023/08/01 00:05:55;;;;;;;;;;;;;;;29.44;38.64;93552.50;5047733;28;9093;-56
2023/08/01 00:08:21;;;;;;;;;;;;;;;29.47;38.48;93556.94;5024053;28;9353;-56
2023/08/01 00:10:47;;;;;;;;;;;;;;;29.45;38.11;93554.00;5027744;28;6998;-56
2023/08/01 00:13:13;;;;;;;;;;;;;;;29.48;37.45;93553.59;5059875;28;7069;-56
2023/08/01 00:15:44;;;;;;;;;;;;;;;29.47;38.38;93552.13;5044788;28;7235;-56
2023/08/01 00:18:10;;;;;;;;;;;;;;;29.43;38.34;93543.44;5041959;28;9409;-56
2023/08/01 00:20:39;;;;;;;;;;;;;;;29.45;38.22;93540.13;5044555;28;7020;-56
2023/08/01 00:23:05;;;;;;;;;;;;;;;29.48;38.63;93531.44;5043383;28;9104;-56
2023/08/01 00:25:34;;;;;;;;;;;;;;;29.49;38.39;93529.41;5029406;28;7857;-56
2023/08/01 00:28:00;;;;;;;;;;;;;;;29.47;38.23;93524.41;5044163;28;6989;-56
2023/08/01 00:30:26;;;;;;;;;;;;;;;29.44;38.68;93519.25;5032901;28;9118;-56
2023/08/01 00:32:52;;;;;;;;;;;;;;;29.41;38.37;93509.28;5047500;28;8692;-56
2023/08/01 00:35:22;;;;;;;;;;;;;;;29.41;38.07;93503.75;5031051;28;7074;-55
2023/08/01 00:37:48;;;;;;;;;;;;;;;29.47;38.36;93504.31;5047182;28;7066;-56
2023/08/01 00:40:16;;;;;;;;;;;;;;;29.43;37.89;93492.84;5045170;28;7171;-55
2023/08/01 00:42:44;;;;;;;;;;;;;;;29.45;38.12;93490.28;5014572;28;7263;-56
2023/08/01 00:45:10;;;;;;;;;;;;;;;29.39;38.45;93484.91;5029774;28;8990;-63
2023/08/01 00:47:36;;;;;;;;;;;;;;;29.42;38.58;93489.34;5060780;28;9161;-63
2023/08/01 00:50:04;;;;;;;;;;;;;;;29.42;38.63;93488.59;5030089;28;9049;-63
2023/08/01 00:52:32;;;;;;;;;;;;;;;29.44;37.68;93483.25;5036094;28;7335;-64
2023/08/01 00:55:00;;;;;;;;;;;;;;;29.41;38.41;93481.56;5047713;28;7226;-63
2023/08/01 00:57:28;;;;;;;;;;;;;;;29.45;37.94;93477.13;5049114;28;6995;-63
2023/08/01 00:59:53;;;;;;;;;;;;;;;29.44;37.98;93475.69;5032437;28;8492;-63
2023/08/01 01:02:30;;;;;;;;;;;;;;;29.39;38.84;93456.47;5035094;28;7025;-63
2023/08/01 01:05:24;;;;;;;;;;;;;;;29.44;38.79;93455.53;5050208;28;10571;-63
2023/08/01 01:07:50;;;;;;;;;;;;;;;29.41;38.95;93460.16;5046492;28;10136;-63
2023/08/01 01:10:32;;;;;;;;;;;;;;;29.38;38.43;93460.53;5048358;28;9068;-63
2023/08/01 01:13:27;;;;;;;;;;;;;;;29.42;38.27;93447.78;5047792;28;7402;-63
2023/08/01 01:16:04;;;;;;;;;;;;;;;29.44;38.72;93439.66;4995393;28;9766;-63
2023/08/01 01:18:37;;;;;;;;;;;;;;;29.37;37.91;93439.66;5009015;28;8797;-63
2023/08/01 01:21:08;;;;;;;;;;;;;;;29.36;38.06;93447.22;5006091;28;9057;-63
2023/08/01 01:23:51;;;;;;;;;;;;;;;29.36;37.84;93433.38;4991349;28;7241;-63
2023/08/01 01:26:27;;;;;;;;;;;;;;;29.39;38.42;93431.53;5005457;28;7246;-63
2023/08/01 01:29:05;;;;;;;;;;;;;;;29.41;38.08;93442.78;5008967;28;7253;-63
2023/08/01 01:31:44;;;;;;;;;;;;;;;29.36;38.59;93438.94;5010188;28;7309;-63
2023/08/01 01:34:24;;;;;;;;;;;;;;;29.34;38.46;93432.50;5004294;28;7270;-63
2023/08/01 01:36:51;;;;;;;;;;;;;;;29.33;37.97;93428.97;5005723;28;6980;-63
2023/08/01 01:39:20;;;;;;;;;;;;;;;29.31;38.32;93428.81;5006770;28;7103;-63
2023/08/01 01:41:50;;;;;;;;;;;;;;;29.28;38.07;93423.63;5007090;28;6992;-63
2023/08/01 01:44:18;;;;;;;;;;;;;;;29.26;38.80;93424.19;4993301;28;7062;-63
2023/08/01 01:47:21;;;;;;;;;;;;;;;29.31;38.05;93419.75;4984310;28;7135;-63
2023/08/01 01:49:49;;;;;;;;;;;;;;;29.26;38.61;93410.34;4970014;28;7207;-63
2023/08/01 01:52:19;;;;;;;;;;;;;;;29.27;38.95;93419.41;4969593;28;9139;-63
2023/08/01 01:54:48;;;;;;;;;;;;;;;29.20;38.69;93418.13;4992350;28;7324;-62
2023/08/01 01:57:40;;;;;;;;;;;;;;;29.16;37.99;93412.22;4993749;28;7197;-62
2023/08/01 02:00:58;;;;;;;;;;;;;;;29.23;38.79;93416.28;4989816;28;7231;-62
2023/08/01 02:03:33;;;;;;;;;;;;;;;29.22;38.50;93412.00;4993835;28;7393;-62
2023/08/01 02:06:09;;;;;;;;;;;;;;;29.26;38.73;93415.13;4966209;28;9193;-62
2023/08/01 02:08:45;;;;;;;;;;;;;;;29.24;38.26;93417.72;4958691;28;7201;-62
2023/08/01 02:11:42;;;;;;;;;;;;;;;29.21;37.96;93411.28;4990279;28;7371;-62
2023/08/01 02:14:28;;;;;;;;;;;;;;;29.15;38.94;93404.44;4993140;28;6966;-62
2023/08/01 02:16:53;;;;;;;;;;;;;;;29.19;37.89;93410.38;4975734;28;7013;-62
2023/08/01 02:19:34;;;;;;;;;;;;;;;29.15;37.89;93407.19;4978494;28;7148;-62
2023/08/01 02:22:01;;;;;;;;;;;;;;;29.16;38.15;93405.91;4989353;28;7620;-62
2023/08/01 02:24:29;;;;;;;;;;;;;;;29.16;38.20;93408.69;5036914;28;8788;-62
2023/08/01 02:27:15;;;;;;;;;;;;;;;29.14;38.20;93408.50;5039008;28;7336;-62
2023/08/01 02:29:51;;;;;;;;;;;;;;;29.14;38.35;93409.25;5049706;28;7175;-62
2023/08/01 02:32:21;;;;;;;;;;;;;;;29.14;38.36;93408.50;5058085;28;7474;-62
2023/08/01 02:34:50;;;;;;;;;;;;;;;29.12;38.28;93409.06;5050956;28;7597;-62
2023/08/01 02:37:23;;;;;;;;;;;;;;;29.12;37.64;93402.78;5034763;28;7079;-62
2023/08/01 02:39:52;;;;;;;;;;;;;;;29.12;37.92;93398.00;5047920;28;9084;-62
2023/08/01 02:42:52;;;;;;;;;;;;;;;29.12;37.85;93395.22;5061987;28;7439;-62
2023/08/01 02:45:47;;;;;;;;;;;;;;;29.19;37.97;93393.75;4991428;28;9176;-62
2023/08/01 02:48:31;;;;;;;;;;;;;;;29.20;37.25;93395.97;4994016;28;7012;-62
2023/08/01 02:51:15;;;;;;;;;;;;;;;29.21;37.17;93393.94;4994411;28;9167;-62
2023/08/01 02:53:41;;;;;;;;;;;;;;;29.17;38.05;93399.84;4985586;28;8645;-63
2023/08/01 02:56:21;;;;;;;;;;;;;;;29.14;37.56;93397.44;5006871;28;7246;-62
2023/08/01 02:58:47;;;;;;;;;;;;;;;29.15;37.75;93394.09;5008343;28;8880;-62
2023/08/01 03:01:35;;;;;;;;;;;;;;;29.17;37.57;93404.66;4998724;28;9240;-62
2023/08/01 03:04:23;;;;;;;;;;;;;;;29.12;37.71;93408.34;4991484;28;7250;-62
2023/08/01 03:06:50;;;;;;;;;;;;;;;29.14;37.59;93405.75;4987806;28;7272;-64
2023/08/01 03:09:37;;;;;;;;;;;;;;;29.09;38.33;93408.16;4988335;28;7685;-64
2023/08/01 03:12:22;;;;;;;;;;;;;;;29.12;37.23;93408.34;5006016;28;7328;-64
2023/08/01 03:15:26;;;;;;;;;;;;;;;29.14;37.55;93416.81;4975594;28;7419;-64
2023/08/01 03:18:01;;;;;;;;;;;;;;;29.13;37.77;93418.84;4981612;28;7279;-64
2023/08/01 03:20:41;;;;;;;;;;;;;;;29.11;37.99;93418.66;4985054;28;8769;-63
2023/08/01 03:23:07;;;;;;;;;;;;;;;29.13;37.60;93418.84;5047744;28;8199;-63
2023/08/01 03:25:46;;;;;;;;;;;;;;;29.11;37.99;93421.44;5031768;28;7148;-64
2023/08/01 03:28:12;;;;;;;;;;;;;;;29.09;37.47;93424.78;5061630;28;8855;-64
2023/08/01 03:30:38;;;;;;;;;;;;;;;29.10;37.33;93420.69;5035599;28;7947;-64
2023/08/01 03:33:07;;;;;;;;;;;;;;;29.10;37.69;93425.50;5048263;28;9200;-63
2023/08/01 03:35:35;;;;;;;;;;;;;;;29.09;37.80;93424.03;5046760;28;9079;-63
2023/08/01 03:38:08;;;;;;;;;;;;;;;29.07;37.65;93426.63;5030455;28;8912;-64
2023/08/01 03:40:45;;;;;;;;;;;;;;;29.11;37.84;93429.75;5034636;28;9577;-64
2023/08/01 03:43:31;;;;;;;;;;;;;;;29.10;38.08;93423.47;5029854;28;7071;-64
2023/08/01 03:46:12;;;;;;;;;;;;;;;29.09;37.48;93430.31;5028468;28;7494;-64
2023/08/01 03:48:49;;;;;;;;;;;;;;;29.09;37.62;93422.00;5030828;28;8973;-64
2023/08/01 03:51:37;;;;;;;;;;;;;;;29.08;37.56;93414.97;5032505;28;8749;-63
2023/08/01 03:54:13;;;;;;;;;;;;;;;29.07;38.54;93421.06;5042772;28;9501;-64
2023/08/01 03:57:12;;;;;;;;;;;;;;;29.05;37.68;93421.66;5044203;28;7238;-64
2023/08/01 03:59:50;;;;;;;;;;;;;;;29.08;38.22;93417.75;5021011;28;8058;-63
2023/08/01 04:02:26;;;;;;;;;;;;;;;29.09;37.72;93421.25;5031067;28;7269;-63
2023/08/01 04:05:30;;;;;;;;;;;;;;;29.09;37.92;93424.78;5032664;28;7957;-64
2023/08/01 04:08:07;;;;;;;;;;;;;;;29.07;38.07;93424.59;5009696;28;7175;-64
2023/08/01 04:11:05;;;;;;;;;;;;;;;29.08;37.43;93422.53;5016309;28;7184;-63
2023/08/01 04:13:35;;;;;;;;;;;;;;;29.09;37.88;93432.34;4958125;28;7250;-64
2023/08/01 04:16:34;;;;;;;;;;;;;;;29.09;38.31;93422.00;4972939;28;8791;-65
2023/08/01 04:19:00;;;;;;;;;;;;;;;29.06;38.40;93420.34;4925819;28;8286;-65
2023/08/01 04:21:31;;;;;;;;;;;;;;;29.09;37.11;93424.78;4931017;29;9040;-65
2023/08/01 04:24:09;;;;;;;;;;;;;;;29.09;37.86;93424.78;4919597;29;8988;-65
2023/08/01 04:26:48;;;;;;;;;;;;;;;29.06;37.41;93416.81;4933719;29;7050;-65
2023/08/01 04:29:17;;;;;;;;;;;;;;;29.07;38.12;93416.28;4929754;29;9065;-65
2023/08/01 04:32:23;;;;;;;;;;;;;;;29.10;38.26;93426.22;4910354;29;7675;-65
2023/08/01 04:34:59;;;;;;;;;;;;;;;29.12;37.09;93427.72;4911285;29;7264;-65
2023/08/01 04:37:27;;;;;;;;;;;;;;;29.10;37.57;93414.44;4918131;29;9333;-65
2023/08/01 04:39:56;;;;;;;;;;;;;;;29.07;38.31;93424.59;4917459;29;7073;-65
2023/08/01 04:42:22;;;;;;;;;;;;;;;29.08;37.52;93420.50;4916888;29;7376;-65
2023/08/01 04:44:57;;;;;;;;;;;;;;;29.06;37.65;93420.34;4929480;28;6988;-65
2023/08/01 04:47:23;;;;;;;;;;;;;;;29.06;38.17;93425.13;4924117;28;9129;-65
2023/08/01 04:49:50;;;;;;;;;;;;;;;29.07;37.88;93432.91;4949381;28;7201;-65
2023/08/01 04:52:16;;;;;;;;;;;;;;;29.03;38.24;93429.78;4950615;28;7194;-65
2023/08/01 04:54:42;;;;;;;;;;;;;;;29.03;37.91;93429.03;4987050;28;7643;-65
2023/08/01 04:57:08;;;;;;;;;;;;;;;29.05;38.10;93421.66;5031387;28;7111;-65
2023/08/01 04:59:35;;;;;;;;;;;;;;;29.04;37.87;93420.16;5028515;28;9112;-65
2023/08/01 05:02:20;;;;;;;;;;;;;;;29.05;37.54;93407.78;5033904;28;9261;-65
2023/08/01 05:04:55;;;;;;;;;;;;;;;29.10;37.26;93404.06;5033319;28;7111;-65
2023/08/01 05:07:30;;;;;;;;;;;;;;;29.08;37.54;93401.13;5047128;28;7042;-65
2023/08/01 05:09:57;;;;;;;;;;;;;;;29.13;37.62;93395.94;5067336;28;7555;-65
2023/08/01 05:12:24;;;;;;;;;;;;;;;29.10;37.24;93398.53;5033881;28;9145;-65
2023/08/01 05:15:04;;;;;;;;;;;;;;;29.06;37.88;93394.66;5035144;28;7242;-66
2023/08/01 05:17:32;;;;;;;;;;;;;;;29.05;37.79;93388.41;5036587;28;9139;-65
2023/08/01 05:20:30;;;;;;;;;;;;;;;29.04;38.10;93400.78;5053197;28;7612;-64
2023/08/01 05:22:59;;;;;;;;;;;;;;;29.03;38.32;93391.00;5029228;28;7252;-65
2023/08/01 05:25:49;;;;;;;;;;;;;;;29.06;37.51;93394.66;5028792;28;7235;-57
2023/08/01 05:28:30;;;;;;;;;;;;;;;29.07;37.54;93399.66;5021512;28;8872;-57
2023/08/01 05:31:05;;;;;;;;;;;;;;;29.08;37.65;93414.22;5008881;28;7249;-57
2023/08/01 05:33:50;;;;;;;;;;;;;;;29.06;38.11;93402.97;5025307;28;9166;-57
2023/08/01 05:36:18;;;;;;;;;;;;;;;29.05;37.86;93407.06;5012789;28;9546;-57
2023/08/01 05:38:54;;;;;;;;;;;;;;;29.05;37.57;93412.59;5009452;28;6940;-57
2023/08/01 05:41:21;;;;;;;;;;;;;;;29.03;38.07;93407.63;5013785;28;7319;-57
2023/08/01 05:43:49;;;;;;;;;;;;;;;29.03;38.38;93410.38;5022850;28;7199;-57
2023/08/01 05:46:20;;;;;;;;;;;;;;;29.05;37.48;93413.34;5026552;28;7262;-57
2023/08/01 05:48:57;;;;;;;;;;;;;;;29.06;38.42;93405.75;5027615;28;7183;-57
2023/08/01 05:51:24;;;;;;;;;;;;;;;29.05;38.44;93407.06;5027997;28;9087;-57
2023/08/01 05:53:58;;;;;;;;;;;;;;;29.04;37.87;93411.84;5027770;28;8283;-57
2023/08/01 05:56:27;;;;;;;;;;;;;;;29.02;40.20;93410.94;5026965;28;7010;-57
2023/08/01 05:58:55;;;;;;;;;;;;;;;29.05;38.58;93404.28;5033916;28;7205;-57
2023/08/01 06:01:23;;;;;;;;;;;;;;;29.06;38.65;93408.50;5043829;28;6971;-57
2023/08/01 06:03:57;;;;;;;;;;;;;;;29.06;38.49;93414.06;5049840;28;7320;-57
2023/08/01 06:06:23;;;;;;;;;;;;;;;29.04;38.88;93400.78;5033509;28;7360;-56
2023/08/01 06:08:51;;;;;;;;;;;;;;;29.04;38.88;93394.50;5068102;28;9096;-57
2023/08/01 06:11:20;;;;;;;;;;;;;;;29.02;38.28;93414.44;5059607;28;7210;-57
2023/08/01 06:13:50;;;;;;;;;;;;;;;29.04;38.32;93417.38;5062222;28;9130;-57
2023/08/01 06:16:25;;;;;;;;;;;;;;;29.02;38.64;93422.00;5047792;28;8220;-57
2023/08/01 06:19:08;;;;;;;;;;;;;;;29.02;39.27;93427.53;5021906;28;7318;-57
2023/08/01 06:21:43;;;;;;;;;;;;;;;29.02;38.44;93419.97;5035262;28;9094;-57
2023/08/01 06:24:17;;;;;;;;;;;;;;;29.03;39.19;93410.38;5066117;28;7249;-56
2023/08/01 06:26:52;;;;;;;;;;;;;;;29.01;39.13;93401.88;5034391;28;8722;-57
2023/08/01 06:29:28;;;;;;;;;;;;;;;29.01;39.54;93403.94;5060303;28;7217;-57
2023/08/01 06:32:00;;;;;;;;;;;;;;;29.03;38.34;93412.41;5029898;28;8399;-57
2023/08/01 06:34:52;;;;;;;;;;;;;;;29.06;39.11;93408.50;5066363;28;9193;-57
2023/08/01 06:37:18;;;;;;;;;;;;;;;29.03;39.12;93407.63;5045180;28;7004;-57
2023/08/01 06:40:04;;;;;;;;;;;;;;;29.08;38.94;93411.47;5028750;28;7330;-57
2023/08/01 06:42:30;;;;;;;;;;;;;;;29.05;38.94;93407.78;5047020;28;6860;-57
2023/08/01 06:44:56;;;;;;;;;;;;;;;29.05;38.62;93413.34;5049464;28;8869;-57
2023/08/01 06:47:24;;;;;;;;;;;;;;;29.03;39.11;93407.63;5027882;28;7231;-57
2023/08/01 06:50:04;;;;;;;;;;;;;;;29.04;38.73;93405.56;5030911;28;7015;-57
2023/08/01 06:52:36;;;;;;;;;;;;;;;29.01;38.67;93399.09;5068785;28;6990;-57
2023/08/01 06:55:25;;;;;;;;;;;;;;;29.01;38.46;93407.41;5044077;28;7380;-57
2023/08/01 06:57:51;;;;;;;;;;;;;;;29.02;38.84;93400.59;5044750;28;7196;-57
2023/08/01 07:00:18;;;;;;;;;;;;;;;28.99;38.66;93392.69;5033572;28;7032;-57
2023/08/01 07:02:54;;;;;;;;;;;;;;;29.01;38.50;93399.09;5051316;28;6985;-57
2023/08/01 07:05:33;;;;;;;;;;;;;;;29.02;38.64;93403.38;5043463;28;9080;-57
2023/08/01 07:07:59;;;;;;;;;;;;;;;29.01;38.51;93401.88;5060428;28;7801;-57
2023/08/01 07:10:34;;;;;;;;;;;;;;;28.99;39.04;93398.94;5052964;28;7034;-57
2023/08/01 07:13:04;;;;;;;;;;;;;;;29.00;39.29;93407.97;5034958;28;8853;-57
2023/08/01 07:15:32;;;;;;;;;;;;;;;28.97;38.33;93412.59;5035196;28;7028;-57
2023/08/01 07:18:07;;;;;;;;;;;;;;;28.98;38.96;93414.09;5024267;28;7001;-57
2023/08/01 07:20:35;;;;;;;;;;;;;;;28.97;38.33;93415.38;5049127;28;7220;-57
2023/08/01 07:23:03;;;;;;;;;;;;;;;28.99;38.31;93414.81;5028568;28;9278;-57
2023/08/01 07:25:42;;;;;;;;;;;;;;;28.97;38.47;93415.38;5044287;28;7260;-57
2023/08/01 07:28:11;;;;;;;;;;;;;;;28.99;38.23;93396.16;5034345;28;7998;-57
2023/08/01 07:30:39;;;;;;;;;;;;;;;28.99;38.70;93401.69;5016743;28;9142;-57
2023/08/01 07:33:34;;;;;;;;;;;;;;;29.00;38.04;93394.13;5035333;28;9626;-57
2023/08/01 07:36:21;;;;;;;;;;;;;;;28.96;38.90;93391.75;5030209;28;7096;-57
2023/08/01 07:38:52;;;;;;;;;;;;;;;28.96;38.89;93404.84;5032916;28;9255;-57
2023/08/01 07:41:24;;;;;;;;;;;;;;;28.96;38.69;93404.84;5044500;28;7673;-57
2023/08/01 07:43:50;;;;;;;;;;;;;;;28.93;38.62;93417.03;5041308;28;7264;-57
2023/08/01 07:46:18;;;;;;;;;;;;;;;28.91;38.22;93406.53;5035192;28;7382;-63
2023/08/01 07:48:59;;;;;;;;;;;;;;;28.90;38.68;93407.09;5027371;28;8907;-63
2023/08/01 07:51:26;;;;;;;;;;;;;;;28.89;38.22;93411.88;5050802;28;7070;-63
2023/08/01 07:54:35;;;;;;;;;;;;;;;28.88;38.46;93402.09;5067694;28;7083;-63
2023/08/01 07:57:47;;;;;;;;;;;;;;;28.83;38.24;93389.19;5065669;28;7426;-63
2023/08/01 08:00:13;;;;;;;;;;;;;;;28.74;38.58;93397.31;5040931;28;7262;-62
2023/08/01 08:02:44;;;;;;;;;;;;;;;28.73;38.24;93357.84;5049029;28;7180;-63
2023/08/01 08:05:19;;;;;;;;;;;;;;;28.69;38.22;93351.94;5046088;28;9206;-63
2023/08/01 08:07:47;;;;;;;;;;;;;;;28.70;38.45;93360.97;5035085;28;7064;-63
2023/08/01 08:10:17;;;;;;;;;;;;;;;28.67;38.43;93373.91;5067785;28;8785;-63
2023/08/01 08:12:43;;;;;;;;;;;;;;;28.66;38.00;93357.84;5051952;28;9219;-63
2023/08/01 08:15:13;;;;;;;;;;;;;;;28.64;38.72;93355.66;5052528;28;6988;-62
2023/08/01 08:17:49;;;;;;;;;;;;;;;28.61;37.70;93354.00;5033275;28;7382;-63
2023/08/01 08:20:23;;;;;;;;;;;;;;;28.63;38.11;93356.19;5049349;28;9031;-63
2023/08/01 08:23:26;;;;;;;;;;;;;;;28.63;38.26;93356.19;5016224;28;9105;-63
2023/08/01 08:25:53;;;;;;;;;;;;;;;28.60;38.14;93369.09;4971876;28;9484;-63
2023/08/01 08:28:39;;;;;;;;;;;;;;;28.62;38.18;93377.63;4971447;28;8281;-62
2023/08/01 08:31:22;;;;;;;;;;;;;;;28.61;38.26;93381.66;4991140;28;9079;-62
2023/08/01 08:34:20;;;;;;;;;;;;;;;28.62;37.98;93396.97;4974204;28;7299;-63
2023/08/01 08:36:46;;;;;;;;;;;;;;;28.61;38.33;93391.97;4929442;29;7000;-62
2023/08/01 08:39:13;;;;;;;;;;;;;;;28.61;38.28;93397.50;4932584;29;7316;-62
2023/08/01 08:41:47;;;;;;;;;;;;;;;28.59;38.54;93394.56;4918825;29;7321;-63
2023/08/01 08:44:21;;;;;;;;;;;;;;;28.56;38.54;93401.91;4935537;29;8810;-62
2023/08/01 08:47:26;;;;;;;;;;;;;;;28.59;38.70;93373.19;4916516;29;7701;-63
2023/08/01 08:49:54;;;;;;;;;;;;;;;28.55;38.62;93394.19;4897270;29;8340;-62
2023/08/01 08:52:23;;;;;;;;;;;;;;;28.57;38.09;93408.19;4882114;29;6972;-62
2023/08/01 08:55:05;;;;;;;;;;;;;;;28.56;38.02;93418.50;4890828;29;9003;-63
2023/08/01 08:58:07;;;;;;;;;;;;;;;28.54;38.30;93417.59;4897987;29;7126;-62
2023/08/01 09:00:37;;;;;;;;;;;;;;;28.55;38.19;93405.25;4897667;29;7343;-63
2023/08/01 09:03:19;;;;;;;;;;;;;;;28.57;38.20;93414.50;4912973;29;7410;-63
2023/08/01 09:06:11;;;;;;;;;;;;;;;28.57;38.18;93413.72;4913785;29;7232;-63
2023/08/01 09:09:27;;;;;;;;;;;;;;;28.54;38.32;93426.63;4894312;29;7424;-63
2023/08/01 09:12:02;;;;;;;;;;;;;;;28.54;38.01;93423.88;4893066;29;7517;-62
2023/08/01 09:14:29;;;;;;;;;;;;;;;28.52;38.50;93415.38;4932766;28;7190;-63
2023/08/01 09:17:05;;;;;;;;;;;;;;;28.50;38.60;93406.91;4932786;29;9545;-63
2023/08/01 09:19:32;;;;;;;;;;;;;;;28.50;38.04;93429.03;4934967;28;9144;-62
2023/08/01 09:22:17;;;;;;;;;;;;;;;28.51;38.94;93411.16;4936744;28;9084;-63
2023/08/01 09:25:30;;;;;;;;;;;;;;;28.48;38.73;93383.84;4998200;28;7164;-63
2023/08/01 09:28:26;;;;;;;;;;;;;;;28.47;38.31;93399.69;5006880;28;7630;-62
2023/08/01 09:31:31;;;;;;;;;;;;;;;28.47;38.90;93426.66;4986931;28;7186;-62
2023/08/01 09:34:23;;;;;;;;;;;;;;;28.47;39.02;93473.66;5006374;28;7414;-62
2023/08/01 09:36:57;;;;;;;;;;;;;;;28.47;38.98;93474.38;5003197;28;7217;-62
2023/08/01 09:39:34;;;;;;;;;;;;;;;28.42;38.80;93463.50;4984297;28;9223;-62
2023/08/01 09:42:05;;;;;;;;;;;;;;;28.42;38.78;93463.50;5013366;28;8723;-63
2023/08/01 09:45:07;;;;;;;;;;;;;;;28.38;38.36;93470.13;5007036;28;7261;-62
2023/08/01 09:48:07;;;;;;;;;;;;;;;28.41;38.73;93448.19;4985062;28;7269;-62
2023/08/01 09:50:35;;;;;;;;;;;;;;;28.40;38.48;93425.34;5052632;28;9561;-63
2023/08/01 09:53:23;;;;;;;;;;;;;;;28.40;38.62;93421.84;5025823;28;8630;-62
2023/08/01 09:55:56;;;;;;;;;;;;;;;28.38;38.64;93419.63;5061679;28;7206;-62
2023/08/01 09:58:36;;;;;;;;;;;;;;;28.39;38.45;93415.56;5038134;28;9014;-62
2023/08/01 10:01:24;;;;;;;;;;;;;;;28.41;38.69;93426.81;5044025;28;9088;-62
2023/08/01 10:03:53;;;;;;;;;;;;;;;28.40;39.10;93427.38;5025858;28;7285;-62
2023/08/01 10:06:33;;;;;;;;;;;;;;;28.38;38.87;93425.16;5046902;28;9092;-61
2023/08/01 10:09:05;;;;;;;;;;;;;;;28.36;38.87;93427.75;5067630;28;6995;-61
2023/08/01 10:11:34;;;;;;;;;;;;;;;28.37;38.80;93440.28;5047570;28;7246;-61
2023/08/01 10:14:05;;;;;;;;;;;;;;;28.37;38.46;93426.44;5046236;28;8140;-61
2023/08/01 10:16:45;;;;;;;;;;;;;;;28.36;38.68;93411.88;5031047;28;9108;-62
2023/08/01 10:19:14;;;;;;;;;;;;;;;28.41;38.50;93424.03;5030837;28;7272;-62
2023/08/01 10:22:14;;;;;;;;;;;;;;;28.43;38.94;93417.97;5033136;28;7228;-61
2023/08/01 10:25:09;;;;;;;;;;;;;;;28.39;38.55;93412.78;4975477;28;7246;-62
2023/08/01 10:31:24;;;;;;;;;;;;;;;28.37;39.15;93420.91;4992000;28;7109;-62
2023/08/01 10:37:47;;;;;;;;;;;;;;;28.36;39.04;93414.63;4902990;29;8948;-62
2023/08/01 10:40:40;;;;;;;;;;;;;;;28.36;38.95;93422.94;4910324;29;9112;-62
2023/08/01 10:43:06;;;;;;;;;;;;;;;28.38;39.11;93411.34;4893158;29;7019;-61
2023/08/01 10:45:33;;;;;;;;;;;;;;;28.38;40.58;93414.09;4911482;29;7339;-62
2023/08/01 10:48:11;;;;;;;;;;;;;;;28.38;39.28;93427.94;4893028;29;7232;-61
2023/08/01 10:50:54;;;;;;;;;;;;;;;28.38;39.42;93423.13;4907898;29;9528;-61
2023/08/01 10:53:24;;;;;;;;;;;;;;;28.44;39.16;93428.47;4908847;29;8739;-61
2023/08/01 10:55:53;;;;;;;;;;;;;;;28.47;39.19;93430.13;4906679;29;7249;-61
2023/08/01 10:58:19;;;;;;;;;;;;;;;28.47;38.83;93432.88;4902259;29;9112;-61
2023/08/01 11:00:58;;;;;;;;;;;;;;;28.47;39.33;93421.81;4935671;28;8261;-62
2023/08/01 11:03:36;;;;;;;;;;;;;;;28.52;38.78;93420.91;4950918;28;7079;-61
2023/08/01 11:06:03;;;;;;;;;;;;;;;28.51;38.98;93427.00;4943118;28;6993;-61
2023/08/01 11:08:40;;;;;;;;;;;;;;;28.52;38.94;93422.94;4949437;28;7479;-61
2023/08/01 11:11:14;;;;;;;;;;;;;;;28.53;39.40;93418.91;4950049;28;7304;-61
2023/08/01 11:14:02;;;;;;;;;;;;;;;28.54;39.33;93401.72;4980219;28;7597;-61
2023/08/01 11:16:31;;;;;;;;;;;;;;;28.59;38.96;93413.94;5031870;28;7342;-63
2023/08/01 11:19:29;;;;;;;;;;;;;;;28.60;39.02;93416.13;5033489;28;6988;-63
2023/08/01 11:22:11;;;;;;;;;;;;;;;28.59;39.61;93411.91;5044545;28;8793;-63
2023/08/01 11:24:51;;;;;;;;;;;;;;;28.61;39.58;93417.63;5047719;28;7231;-62
2023/08/01 11:27:56;;;;;;;;;;;;;;;28.60;39.44;93416.13;5046885;28;7920;-62
2023/08/01 11:30:58;;;;;;;;;;;;;;;28.58;39.92;93421.50;5027254;28;7422;-63
2023/08/01 11:33:36;;;;;;;;;;;;;;;28.59;39.74;93417.44;5027863;28;7543;-62
2023/08/01 11:36:13;;;;;;;;;;;;;;;28.58;39.46;93410.41;5022917;28;8234;-62
2023/08/01 11:38:48;;;;;;;;;;;;;;;28.57;39.59;93408.97;5009399;28;9132;-62
2023/08/01 11:41:48;;;;;;;;;;;;;;;28.58;39.96;93421.50;5028940;28;7004;-62
2023/08/01 11:44:14;;;;;;;;;;;;;;;28.57;39.66;93431.09;5012041;28;9026;-62
2023/08/01 11:46:41;;;;;;;;;;;;;;;28.59;39.78;93431.28;5023409;28;6972;-63
2023/08/01 11:49:26;;;;;;;;;;;;;;;28.55;39.96;93421.84;5027879;28;7351;-62
2023/08/01 11:51:54;;;;;;;;;;;;;;;28.59;39.65;93430.53;5012798;28;7255;-62
2023/08/01 11:54:31;;;;;;;;;;;;;;;28.59;40.18;93436.06;5009904;28;7268;-62
2023/08/01 11:57:08;;;;;;;;;;;;;;;28.60;40.09;93435.50;5024820;28;7248;-62
2023/08/01 11:59:54;;;;;;;;;;;;;;;28.61;39.71;93431.47;4971207;28;7192;-63
2023/08/01 12:02:40;;;;;;;;;;;;;;;28.63;39.72;93434.41;4986198;28;7278;-63
2023/08/01 12:05:21;;;;;;;;;;;;;;;28.66;39.85;93438.09;4968077;28;7278;-63
2023/08/01 12:07:48;;;;;;;;;;;;;;;28.64;39.96;93452.50;5006986;28;7253;-62
2023/08/01 12:10:22;;;;;;;;;;;;;;;28.62;39.87;93427.41;5031831;28;7283;-62
2023/08/01 12:12:55;;;;;;;;;;;;;;;28.63;40.05;93439.94;5027205;28;9144;-63
2023/08/01 12:15:55;;;;;;;;;;;;;;;28.63;39.93;93444.72;5064793;28;9032;-63
2023/08/01 12:18:53;;;;;;;;;;;;;;;28.64;40.15;93462.81;5002240;28;9548;-63
2023/08/01 12:21:26;;;;;;;;;;;;;;;28.62;40.04;93451.56;4999793;28;11004;-63
2023/08/01 12:23:54;;;;;;;;;;;;;;;28.62;39.94;93457.84;4987625;28;6972;-63
2023/08/01 12:26:36;;;;;;;;;;;;;;;28.60;40.17;93457.63;5006685;28;8236;-56
2023/08/01 12:29:23;;;;;;;;;;;;;;;28.60;39.83;93449.34;4994953;28;6992;-56
2023/08/01 12:32:01;;;;;;;;;;;;;;;28.60;39.52;93463.19;4990938;28;9125;-56
2023/08/01 12:35:02;;;;;;;;;;;;;;;28.57;40.14;93444.94;4982619;28;7277;-56
2023/08/01 12:37:37;;;;;;;;;;;;;;;28.55;39.98;93441.94;4927653;29;7281;-56
2023/08/01 12:40:14;;;;;;;;;;;;;;;28.54;40.31;93426.63;4915546;29;7747;-56
2023/08/01 12:42:59;;;;;;;;;;;;;;;28.53;39.67;93419.63;4911456;29;9078;-57
2023/08/01 12:45:39;;;;;;;;;;;;;;;28.51;40.30;93422.22;4917352;29;9065;-56
2023/08/01 12:48:06;;;;;;;;;;;;;;;28.48;40.21;93405.97;4917497;29;7203;-56
2023/08/01 12:50:36;;;;;;;;;;;;;;;28.47;40.28;93393.44;4919132;29;9099;-56
2023/08/01 12:53:03;;;;;;;;;;;;;;;28.46;40.55;93403.78;4922269;29;7279;-57
2023/08/01 12:56:10;;;;;;;;;;;;;;;28.49;40.02;93394.38;4942398;28;7523;-56
2023/08/01 12:58:50;;;;;;;;;;;;;;;28.48;40.35;93401.19;4898757;29;6991;-56
2023/08/01 13:01:44;;;;;;;;;;;;;;;28.49;39.94;93397.16;4881734;29;7407;-56
2023/08/01 13:04:18;;;;;;;;;;;;;;;28.48;40.26;93408.75;4882553;29;9179;-56
2023/08/01 13:06:45;;;;;;;;;;;;;;;28.50;40.92;93414.47;4900126;29;7468;-56
2023/08/01 13:09:28;;;;;;;;;;;;;;;28.46;40.25;93406.53;4897793;29;7438;-56
2023/08/01 13:12:07;;;;;;;;;;;;;;;28.47;40.44;93416.28;4900939;28;7625;-57
2023/08/01 13:14:58;;;;;;;;;;;;;;;28.45;40.46;93432.72;4935341;28;8069;-56
2023/08/01 13:17:56;;;;;;;;;;;;;;;28.45;40.45;93429.94;4950166;28;8622;-56
2023/08/01 13:20:25;;;;;;;;;;;;;;;28.44;40.54;93433.28;4969759;28;7300;-56
2023/08/01 13:22:54;;;;;;;;;;;;;;;28.41;40.75;93437.88;4936911;28;6852;-56
2023/08/01 13:25:49;;;;;;;;;;;;;;;28.44;40.99;93441.56;4949104;28;7124;-56
2023/08/01 13:28:29;;;;;;;;;;;;;;;28.41;40.56;93454.47;4917715;28;9063;-56
2023/08/01 13:31:08;;;;;;;;;;;;;;;28.44;40.71;93469.97;4988021;28;9266;-56
2023/08/01 13:33:47;;;;;;;;;;;;;;;28.46;40.86;93463.88;4972463;28;7229;-56
2023/08/01 13:36:17;;;;;;;;;;;;;;;28.45;40.19;93465.91;4976152;28;7225;-61
2023/08/01 13:38:45;;;;;;;;;;;;;;;28.41;40.37;93451.69;4970961;28;9883;-61
2023/08/01 13:41:22;;;;;;;;;;;;;;;28.40;40.72;93444.72;4994363;28;6973;-61
2023/08/01 13:43:59;;;;;;;;;;;;;;;28.43;40.96;93445.63;4991635;28;8620;-61
2023/08/01 13:47:10;;;;;;;;;;;;;;;28.45;40.30;93454.84;4989936;28;9018;-61
2023/08/01 13:49:47;;;;;;;;;;;;;;;28.42;40.55;93455.97;4973281;28;7257;-62
2023/08/01 13:52:52;;;;;;;;;;;;;;;28.46;40.07;93469.41;4973579;28;7181;-62
2023/08/01 13:55:18;;;;;;;;;;;;;;;28.44;40.24;93469.22;4892417;29;7242;-61
2023/08/01 13:57:47;;;;;;;;;;;;;;;28.43;40.35;93476.78;4884901;29;7620;-61